sensor_id;sensor_type;location;lat;lon;timestamp;temperature;humidity
47482;DHT22;33219;47.410;9.730;2023-05-27T00:00:41;15.30;99.90
47482;DHT22;33219;47.410;9.730;2023-05-27T00:03:08;15.30;99.90
47482;DHT22;33219;47.410;9.730;2023-05-27T00:05:36;15.20;99.90
47482;DHT22;33219;47.410;9.730;2023-05-27T00:08:04;15.20;99.90
47482;DHT22;33219;47.410;9.730;2023-05-27T00:10:31;15.10;99.90
47482;DHT22;33219;47.410;9.730;2023-05-27T00:12:59;15.10;99.90
47482;DHT22;33219;47.410;9.730;2023-05-27T00:15:26;15.10;99.90
47482;DHT22;33219;47.410;9.730;2023-05-27T00:17:54;15.00;99.90
47482;DHT22;33219;47.410;9.730;2023-05-27T00:20:22;15.00;99.90
47482;DHT22;33219;47.410;9.730;2023-05-27T00:22:50;15.00;99.90
47482;DHT22;33219;47.410;9.730;2023-05-27T00:25:18;14.90;99.90
47482;DHT22;33219;47.410;9.730;2023-05-27T00:27:47;14.90;99.90
47482;DHT22;33219;47.410;9.730;2023-05-27T00:30:15;14.80;99.90
47482;DHT22;33219;47.410;9.730;2023-05-27T00:32:43;14.80;99.90
47482;DHT22;33219;47.410;9.730;2023-05-27T00:35:10;14.80;99.90
47482;DHT22;33219;47.410;9.730;2023-05-27T00:37:38;14.80;99.90
47482;DHT22;33219;47.410;9.730;2023-05-27T00:40:10;14.80;99.90
47482;DHT22;33219;47.410;9.730;2023-05-27T00:42:38;14.80;99.90
47482;DHT22;33219;47.410;9.730;2023-05-27T00:45:06;14.80;99.90
47482;DHT22;33219;47.410;9.730;2023-05-27T00:47:34;14.70;99.90
47482;DHT22;33219;47.410;9.730;2023-05-27T00:50:03;14.80;99.90
47482;DHT22;33219;47.410;9.730;2023-05-27T00:52:31;14.70;99.90
47482;DHT22;33219;47.410;9.730;2023-05-27T00:54:59;14.70;99.90
47482;DHT22;33219;47.410;9.730;2023-05-27T00:57:27;14.70;99.90
47482;DHT22;33219;47.410;9.730;2023-05-27T00:59:55;14.70;99.90
47482;DHT22;33219;47.410;9.730;2023-05-27T01:02:22;14.70;99.90
47482;DHT22;33219;47.410;9.730;2023-05-27T01:04:50;14.60;99.90
47482;DHT22;33219;47.410;9.730;2023-05-27T01:07:22;14.60;99.90
47482;DHT22;33219;47.410;9.730;2023-05-27T01:10:51;14.50;99.90
47482;DHT22;33219;47.410;9.730;2023-05-27T01:12:44;14.40;99.90
47482;DHT22;33219;47.410;9.730;2023-05-27T01:15:11;14.40;99.90
47482;DHT22;33219;47.410;9.730;2023-05-27T01:17:41;14.40;99.90
47482;DHT22;33219;47.410;9.730;2023-05-27T01:20:11;14.30;99.90
47482;DHT22;33219;47.410;9.730;2023-05-27T01:22:40;14.30;99.90
47482;DHT22;33219;47.410;9.730;2023-05-27T01:25:09;14.30;99.90
47482;DHT22;33219;47.410;9.730;2023-05-27T01:27:37;14.30;99.90
47482;DHT22;33219;47.410;9.730;2023-05-27T01:30:07;14.30;99.90
47482;DHT22;33219;47.410;9.730;2023-05-27T01:32:39;14.30;99.90
47482;DHT22;33219;47.410;9.730;2023-05-27T01:35:29;14.30;99.90
47482;DHT22;33219;47.410;9.730;2023-05-27T01:38:00;14.30;99.90
47482;DHT22;33219;47.410;9.730;2023-05-27T01:40:28;14.20;99.90
47482;DHT22;33219;47.410;9.730;2023-05-27T01:42:57;14.20;99.90
47482;DHT22;33219;47.410;9.730;2023-05-27T01:45:25;14.10;99.90
47482;DHT22;33219;47.410;9.730;2023-05-27T01:47:53;14.10;99.90
47482;DHT22;33219;47.410;9.730;2023-05-27T01:50:20;14.10;99.90
47482;DHT22;33219;47.410;9.730;2023-05-27T01:52:48;14.10;99.90
47482;DHT22;33219;47.410;9.730;2023-05-27T01:55:16;14.00;99.90
47482;DHT22;33219;47.410;9.730;2023-05-27T01:57:44;14.00;99.90
47482;DHT22;33219;47.410;9.730;2023-05-27T02:00:12;14.00;99.90
47482;DHT22;33219;47.410;9.730;2023-05-27T02:02:40;14.00;99.90
47482;DHT22;33219;47.410;9.730;2023-05-27T02:05:07;14.00;99.90
47482;DHT22;33219;47.410;9.730;2023-05-27T02:07:35;13.90;99.90
47482;DHT22;33219;47.410;9.730;2023-05-27T02:10:03;13.90;99.90
47482;DHT22;33219;47.410;9.730;2023-05-27T02:12:30;13.90;99.90
47482;DHT22;33219;47.410;9.730;2023-05-27T02:14:58;13.90;99.90
47482;DHT22;33219;47.410;9.730;2023-05-27T02:17:25;13.80;99.90
47482;DHT22;33219;47.410;9.730;2023-05-27T02:19:53;13.80;99.90
47482;DHT22;33219;47.410;9.730;2023-05-27T02:22:22;13.80;99.90
47482;DHT22;33219;47.410;9.730;2023-05-27T02:24:49;13.80;99.90
47482;DHT22;33219;47.410;9.730;2023-05-27T02:27:17;13.70;99.90
47482;DHT22;33219;47.410;9.730;2023-05-27T02:29:45;13.70;99.90
47482;DHT22;33219;47.410;9.730;2023-05-27T02:32:12;13.60;99.90
47482;DHT22;33219;47.410;9.730;2023-05-27T02:34:40;13.60;99.90
47482;DHT22;33219;47.410;9.730;2023-05-27T02:37:07;13.60;99.90
47482;DHT22;33219;47.410;9.730;2023-05-27T02:39:35;13.60;99.90
47482;DHT22;33219;47.410;9.730;2023-05-27T02:42:03;13.60;99.90
47482;DHT22;33219;47.410;9.730;2023-05-27T02:44:31;13.50;99.90
47482;DHT22;33219;47.410;9.730;2023-05-27T02:46:58;13.50;99.90
47482;DHT22;33219;47.410;9.730;2023-05-27T02:49:26;13.50;99.90
47482;DHT22;33219;47.410;9.730;2023-05-27T02:51:53;13.50;99.90
47482;DHT22;33219;47.410;9.730;2023-05-27T02:54:21;13.40;99.90
47482;DHT22;33219;47.410;9.730;2023-05-27T02:56:48;13.40;99.90
47482;DHT22;33219;47.410;9.730;2023-05-27T02:59:16;13.40;99.90
47482;DHT22;33219;47.410;9.730;2023-05-27T03:01:44;13.40;99.90
47482;DHT22;33219;47.410;9.730;2023-05-27T03:04:11;13.40;99.90
47482;DHT22;33219;47.410;9.730;2023-05-27T03:06:39;13.40;99.90
47482;DHT22;33219;47.410;9.730;2023-05-27T03:09:07;13.40;99.90
47482;DHT22;33219;47.410;9.730;2023-05-27T03:11:34;13.30;99.90
47482;DHT22;33219;47.410;9.730;2023-05-27T03:14:02;13.30;99.90
47482;DHT22;33219;47.410;9.730;2023-05-27T03:16:29;13.30;99.90
47482;DHT22;33219;47.410;9.730;2023-05-27T03:18:58;13.20;99.90
47482;DHT22;33219;47.410;9.730;2023-05-27T03:21:26;13.20;99.90
47482;DHT22;33219;47.410;9.730;2023-05-27T03:23:53;13.20;99.90
47482;DHT22;33219;47.410;9.730;2023-05-27T03:26:21;13.10;99.90
47482;DHT22;33219;47.410;9.730;2023-05-27T03:28:49;13.10;99.90
47482;DHT22;33219;47.410;9.730;2023-05-27T03:31:16;13.10;99.90
47482;DHT22;33219;47.410;9.730;2023-05-27T03:33:44;13.10;99.90
47482;DHT22;33219;47.410;9.730;2023-05-27T03:36:12;13.00;99.90
47482;DHT22;33219;47.410;9.730;2023-05-27T03:38:39;13.10;99.90
47482;DHT22;33219;47.410;9.730;2023-05-27T03:41:07;13.00;99.90
47482;DHT22;33219;47.410;9.730;2023-05-27T03:43:35;13.10;99.90
47482;DHT22;33219;47.410;9.730;2023-05-27T03:46:02;13.10;99.90
47482;DHT22;33219;47.410;9.730;2023-05-27T03:48:30;13.10;99.90
47482;DHT22;33219;47.410;9.730;2023-05-27T03:50:57;13.10;99.90
47482;DHT22;33219;47.410;9.730;2023-05-27T03:53:25;13.10;99.90
47482;DHT22;33219;47.410;9.730;2023-05-27T03:55:52;13.10;99.90
47482;DHT22;33219;47.410;9.730;2023-05-27T03:58:20;13.10;99.90
47482;DHT22;33219;47.410;9.730;2023-05-27T04:00:48;13.10;99.90
47482;DHT22;33219;47.410;9.730;2023-05-27T04:03:15;13.10;99.90
47482;DHT22;33219;47.410;9.730;2023-05-27T04:05:43;13.10;99.90
47482;DHT22;33219;47.410;9.730;2023-05-27T04:08:11;13.10;99.90
47482;DHT22;33219;47.410;9.730;2023-05-27T04:10:39;13.20;99.90
47482;DHT22;33219;47.410;9.730;2023-05-27T04:13:07;13.20;99.90
47482;DHT22;33219;47.410;9.730;2023-05-27T04:15:34;13.20;99.90
47482;DHT22;33219;47.410;9.730;2023-05-27T04:18:02;13.20;99.90
47482;DHT22;33219;47.410;9.730;2023-05-27T04:20:40;13.30;99.90
47482;DHT22;33219;47.410;9.730;2023-05-27T04:23:10;13.30;99.90
47482;DHT22;33219;47.410;9.730;2023-05-27T04:25:37;13.50;99.90
47482;DHT22;33219;47.410;9.730;2023-05-27T04:28:06;13.60;99.90
47482;DHT22;33219;47.410;9.730;2023-05-27T04:30:35;14.10;99.90
47482;DHT22;33219;47.410;9.730;2023-05-27T04:33:05;14.90;99.90
47482;DHT22;33219;47.410;9.730;2023-05-27T04:35:34;15.70;99.90
47482;DHT22;33219;47.410;9.730;2023-05-27T04:38:01;16.50;99.90
47482;DHT22;33219;47.410;9.730;2023-05-27T04:40:29;17.10;99.90
47482;DHT22;33219;47.410;9.730;2023-05-27T04:42:57;17.40;99.90
47482;DHT22;33219;47.410;9.730;2023-05-27T04:45:25;17.50;99.90
47482;DHT22;33219;47.410;9.730;2023-05-27T04:47:53;17.20;99.90
47482;DHT22;33219;47.410;9.730;2023-05-27T04:50:22;17.00;99.90
47482;DHT22;33219;47.410;9.730;2023-05-27T04:52:50;16.80;99.90
47482;DHT22;33219;47.410;9.730;2023-05-27T04:55:17;16.70;99.90
47482;DHT22;33219;47.410;9.730;2023-05-27T04:57:45;16.60;99.90
47482;DHT22;33219;47.410;9.730;2023-05-27T05:00:13;16.40;99.90
47482;DHT22;33219;47.410;9.730;2023-05-27T05:02:42;16.60;99.90
47482;DHT22;33219;47.410;9.730;2023-05-27T05:05:11;16.80;99.90
47482;DHT22;33219;47.410;9.730;2023-05-27T05:07:39;17.30;99.90
47482;DHT22;33219;47.410;9.730;2023-05-27T05:10:08;17.90;99.90
47482;DHT22;33219;47.410;9.730;2023-05-27T05:12:37;18.70;99.90
47482;DHT22;33219;47.410;9.730;2023-05-27T05:15:05;19.50;99.90
47482;DHT22;33219;47.410;9.730;2023-05-27T05:17:34;20.00;99.90
47482;DHT22;33219;47.410;9.730;2023-05-27T05:20:02;20.40;99.60
47482;DHT22;33219;47.410;9.730;2023-05-27T05:22:30;20.50;99.30
47482;DHT22;33219;47.410;9.730;2023-05-27T05:24:57;20.80;98.70
47482;DHT22;33219;47.410;9.730;2023-05-27T05:27:25;20.60;98.70
47482;DHT22;33219;47.410;9.730;2023-05-27T05:29:52;20.80;98.80
47482;DHT22;33219;47.410;9.730;2023-05-27T05:32:20;20.80;98.60
47482;DHT22;33219;47.410;9.730;2023-05-27T05:34:48;21.10;98.50
47482;DHT22;33219;47.410;9.730;2023-05-27T05:37:15;21.40;97.60
47482;DHT22;33219;47.410;9.730;2023-05-27T05:39:43;22.20;96.80
47482;DHT22;33219;47.410;9.730;2023-05-27T05:42:10;22.80;95.60
47482;DHT22;33219;47.410;9.730;2023-05-27T05:44:38;23.60;94.10
47482;DHT22;33219;47.410;9.730;2023-05-27T05:47:06;24.30;92.90
47482;DHT22;33219;47.410;9.730;2023-05-27T05:49:34;24.30;92.90
47482;DHT22;33219;47.410;9.730;2023-05-27T05:52:02;24.90;91.60
47482;DHT22;33219;47.410;9.730;2023-05-27T05:54:29;24.90;91.30
47482;DHT22;33219;47.410;9.730;2023-05-27T05:56:57;25.30;90.60
47482;DHT22;33219;47.410;9.730;2023-05-27T05:59:24;25.60;89.90
47482;DHT22;33219;47.410;9.730;2023-05-27T06:01:52;26.30;87.90
47482;DHT22;33219;47.410;9.730;2023-05-27T06:04:19;26.60;85.90
47482;DHT22;33219;47.410;9.730;2023-05-27T06:06:47;26.50;85.80
47482;DHT22;33219;47.410;9.730;2023-05-27T06:09:15;27.00;82.80
47482;DHT22;33219;47.410;9.730;2023-05-27T06:11:42;26.60;83.20
47482;DHT22;33219;47.410;9.730;2023-05-27T06:14:10;25.40;85.80
47482;DHT22;33219;47.410;9.730;2023-05-27T06:16:37;25.70;86.40
47482;DHT22;33219;47.410;9.730;2023-05-27T06:19:06;26.70;82.10
47482;DHT22;33219;47.410;9.730;2023-05-27T06:21:34;27.10;81.20
47482;DHT22;33219;47.410;9.730;2023-05-27T06:24:01;26.10;84.00
47482;DHT22;33219;47.410;9.730;2023-05-27T06:26:29;25.80;83.80
47482;DHT22;33219;47.410;9.730;2023-05-27T06:28:57;25.90;84.20
47482;DHT22;33219;47.410;9.730;2023-05-27T06:31:24;27.20;81.60
47482;DHT22;33219;47.410;9.730;2023-05-27T06:33:53;28.10;78.10
47482;DHT22;33219;47.410;9.730;2023-05-27T06:36:21;28.50;76.80
47482;DHT22;33219;47.410;9.730;2023-05-27T06:38:49;27.60;79.30
47482;DHT22;33219;47.410;9.730;2023-05-27T06:41:16;27.10;79.80
47482;DHT22;33219;47.410;9.730;2023-05-27T06:43:44;27.40;79.30
47482;DHT22;33219;47.410;9.730;2023-05-27T06:46:11;27.00;79.90
47482;DHT22;33219;47.410;9.730;2023-05-27T06:48:39;27.20;80.50
47482;DHT22;33219;47.410;9.730;2023-05-27T06:51:07;27.10;78.70
47482;DHT22;33219;47.410;9.730;2023-05-27T06:53:35;27.30;78.60
47482;DHT22;33219;47.410;9.730;2023-05-27T06:56:03;28.30;76.90
47482;DHT22;33219;47.410;9.730;2023-05-27T06:58:30;28.80;75.70
47482;DHT22;33219;47.410;9.730;2023-05-27T07:00:58;28.90;74.70
47482;DHT22;33219;47.410;9.730;2023-05-27T07:03:25;28.20;75.90
47482;DHT22;33219;47.410;9.730;2023-05-27T07:05:53;27.40;77.50
47482;DHT22;33219;47.410;9.730;2023-05-27T07:08:21;26.80;78.90
47482;DHT22;33219;47.410;9.730;2023-05-27T07:10:48;27.60;77.50
47482;DHT22;33219;47.410;9.730;2023-05-27T07:13:18;28.10;76.50
47482;DHT22;33219;47.410;9.730;2023-05-27T07:15:46;27.40;77.10
47482;DHT22;33219;47.410;9.730;2023-05-27T07:18:14;27.10;78.00
47482;DHT22;33219;47.410;9.730;2023-05-27T07:20:41;27.90;77.60
47482;DHT22;33219;47.410;9.730;2023-05-27T07:23:09;28.70;74.90
47482;DHT22;33219;47.410;9.730;2023-05-27T07:25:36;29.20;74.80
47482;DHT22;33219;47.410;9.730;2023-05-27T07:28:04;29.20;74.60
47482;DHT22;33219;47.410;9.730;2023-05-27T07:30:31;29.10;73.70
47482;DHT22;33219;47.410;9.730;2023-05-27T07:32:59;28.60;75.30
47482;DHT22;33219;47.410;9.730;2023-05-27T07:35:27;28.80;74.90
47482;DHT22;33219;47.410;9.730;2023-05-27T07:37:54;28.40;76.00
47482;DHT22;33219;47.410;9.730;2023-05-27T07:40:22;27.70;77.70
47482;DHT22;33219;47.410;9.730;2023-05-27T07:42:49;28.80;76.20
47482;DHT22;33219;47.410;9.730;2023-05-27T07:45:17;29.20;73.80
47482;DHT22;33219;47.410;9.730;2023-05-27T07:47:45;28.90;75.00
47482;DHT22;33219;47.410;9.730;2023-05-27T07:50:12;28.70;74.90
47482;DHT22;33219;47.410;9.730;2023-05-27T07:52:41;29.50;71.90
47482;DHT22;33219;47.410;9.730;2023-05-27T07:55:09;29.30;72.40
47482;DHT22;33219;47.410;9.730;2023-05-27T07:57:36;28.50;74.80
47482;DHT22;33219;47.410;9.730;2023-05-27T08:00:05;28.10;76.50
47482;DHT22;33219;47.410;9.730;2023-05-27T08:02:33;27.60;76.90
47482;DHT22;33219;47.410;9.730;2023-05-27T08:05:01;28.00;77.30
47482;DHT22;33219;47.410;9.730;2023-05-27T08:07:29;28.50;75.60
47482;DHT22;33219;47.410;9.730;2023-05-27T08:09:56;29.00;74.50
47482;DHT22;33219;47.410;9.730;2023-05-27T08:12:24;28.50;75.00
47482;DHT22;33219;47.410;9.730;2023-05-27T08:14:52;28.30;75.00
47482;DHT22;33219;47.410;9.730;2023-05-27T08:17:19;28.80;73.20
47482;DHT22;33219;47.410;9.730;2023-05-27T08:19:47;28.30;75.10
47482;DHT22;33219;47.410;9.730;2023-05-27T08:22:15;28.40;73.90
47482;DHT22;33219;47.410;9.730;2023-05-27T08:24:42;27.10;76.30
47482;DHT22;33219;47.410;9.730;2023-05-27T08:27:15;27.00;76.80
47482;DHT22;33219;47.410;9.730;2023-05-27T08:29:43;28.30;74.50
47482;DHT22;33219;47.410;9.730;2023-05-27T08:32:11;28.10;75.50
47482;DHT22;33219;47.410;9.730;2023-05-27T08:34:38;28.20;74.30
47482;DHT22;33219;47.410;9.730;2023-05-27T08:37:07;27.60;76.30
47482;DHT22;33219;47.410;9.730;2023-05-27T08:39:35;27.70;76.00
47482;DHT22;33219;47.410;9.730;2023-05-27T08:42:03;27.70;75.20
47482;DHT22;33219;47.410;9.730;2023-05-27T08:44:30;27.80;75.00
47482;DHT22;33219;47.410;9.730;2023-05-27T08:46:58;27.60;75.80
47482;DHT22;33219;47.410;9.730;2023-05-27T08:49:26;27.90;76.70
47482;DHT22;33219;47.410;9.730;2023-05-27T08:51:55;28.20;75.90
47482;DHT22;33219;47.410;9.730;2023-05-27T08:54:25;28.60;72.20
47482;DHT22;33219;47.410;9.730;2023-05-27T08:56:54;28.50;72.70
47482;DHT22;33219;47.410;9.730;2023-05-27T08:59:22;28.10;75.00
47482;DHT22;33219;47.410;9.730;2023-05-27T09:01:52;28.10;74.20
47482;DHT22;33219;47.410;9.730;2023-05-27T09:04:19;27.80;75.40
47482;DHT22;33219;47.410;9.730;2023-05-27T09:06:47;27.80;75.50
47482;DHT22;33219;47.410;9.730;2023-05-27T09:09:15;28.30;77.00
47482;DHT22;33219;47.410;9.730;2023-05-27T09:11:44;28.00;75.70
47482;DHT22;33219;47.410;9.730;2023-05-27T09:14:20;28.30;74.50
47482;DHT22;33219;47.410;9.730;2023-05-27T09:16:48;28.30;75.60
47482;DHT22;33219;47.410;9.730;2023-05-27T09:19:19;28.10;75.20
47482;DHT22;33219;47.410;9.730;2023-05-27T09:21:47;28.50;74.30
47482;DHT22;33219;47.410;9.730;2023-05-27T09:24:14;28.40;73.20
47482;DHT22;33219;47.410;9.730;2023-05-27T09:26:42;28.20;73.40
47482;DHT22;33219;47.410;9.730;2023-05-27T09:29:10;28.10;73.60
47482;DHT22;33219;47.410;9.730;2023-05-27T09:31:41;28.20;73.50
47482;DHT22;33219;47.410;9.730;2023-05-27T09:34:15;27.80;74.60
47482;DHT22;33219;47.410;9.730;2023-05-27T09:36:45;27.80;75.30
47482;DHT22;33219;47.410;9.730;2023-05-27T09:39:15;28.00;74.10
47482;DHT22;33219;47.410;9.730;2023-05-27T09:41:43;27.60;73.60
47482;DHT22;33219;47.410;9.730;2023-05-27T09:44:10;27.20;74.60
47482;DHT22;33219;47.410;9.730;2023-05-27T09:46:39;27.50;75.80
47482;DHT22;33219;47.410;9.730;2023-05-27T09:49:09;27.50;75.50
47482;DHT22;33219;47.410;9.730;2023-05-27T09:51:38;27.60;78.70
47482;DHT22;33219;47.410;9.730;2023-05-27T09:54:08;27.50;76.20
47482;DHT22;33219;47.410;9.730;2023-05-27T09:56:36;27.50;76.70
47482;DHT22;33219;47.410;9.730;2023-05-27T09:59:04;27.30;75.60
47482;DHT22;33219;47.410;9.730;2023-05-27T10:01:32;26.80;76.50
47482;DHT22;33219;47.410;9.730;2023-05-27T10:04:00;26.40;82.40
47482;DHT22;33219;47.410;9.730;2023-05-27T10:06:29;25.90;82.10
47482;DHT22;33219;47.410;9.730;2023-05-27T10:08:58;25.70;78.80
47482;DHT22;33219;47.410;9.730;2023-05-27T10:11:26;25.80;81.50
47482;DHT22;33219;47.410;9.730;2023-05-27T10:13:54;25.70;80.40
47482;DHT22;33219;47.410;9.730;2023-05-27T10:16:22;25.60;79.60
47482;DHT22;33219;47.410;9.730;2023-05-27T10:18:57;25.60;80.50
47482;DHT22;33219;47.410;9.730;2023-05-27T10:21:27;25.30;82.50
47482;DHT22;33219;47.410;9.730;2023-05-27T10:24:00;25.40;81.20
47482;DHT22;33219;47.410;9.730;2023-05-27T10:26:40;25.40;81.40
47482;DHT22;33219;47.410;9.730;2023-05-27T10:29:17;25.20;80.10
47482;DHT22;33219;47.410;9.730;2023-05-27T10:31:49;25.10;82.70
47482;DHT22;33219;47.410;9.730;2023-05-27T10:34:17;25.20;81.00
47482;DHT22;33219;47.410;9.730;2023-05-27T10:36:45;25.30;81.20
47482;DHT22;33219;47.410;9.730;2023-05-27T10:39:15;25.40;83.60
47482;DHT22;33219;47.410;9.730;2023-05-27T10:44:13;25.00;81.80
47482;DHT22;33219;47.410;9.730;2023-05-27T10:46:42;24.90;80.70
47482;DHT22;33219;47.410;9.730;2023-05-27T10:49:14;24.80;82.30
47482;DHT22;33219;47.410;9.730;2023-05-27T10:51:43;24.90;82.00
47482;DHT22;33219;47.410;9.730;2023-05-27T10:54:12;25.10;81.00
47482;DHT22;33219;47.410;9.730;2023-05-27T10:56:48;24.90;81.90
47482;DHT22;33219;47.410;9.730;2023-05-27T10:59:22;24.70;81.80
47482;DHT22;33219;47.410;9.730;2023-05-27T11:01:53;24.80;81.80
47482;DHT22;33219;47.410;9.730;2023-05-27T11:04:21;25.00;81.80
47482;DHT22;33219;47.410;9.730;2023-05-27T11:07:01;25.10;82.00
47482;DHT22;33219;47.410;9.730;2023-05-27T11:09:28;24.90;80.90
47482;DHT22;33219;47.410;9.730;2023-05-27T11:11:56;24.90;81.70
47482;DHT22;33219;47.410;9.730;2023-05-27T11:14:24;24.70;82.00
47482;DHT22;33219;47.410;9.730;2023-05-27T11:16:52;24.90;83.70
47482;DHT22;33219;47.410;9.730;2023-05-27T11:19:21;25.10;82.20
47482;DHT22;33219;47.410;9.730;2023-05-27T11:21:49;25.40;85.30
47482;DHT22;33219;47.410;9.730;2023-05-27T11:24:19;25.60;84.00
47482;DHT22;33219;47.410;9.730;2023-05-27T11:26:47;25.50;82.00
47482;DHT22;33219;47.410;9.730;2023-05-27T11:29:15;25.60;81.40
47482;DHT22;33219;47.410;9.730;2023-05-27T11:31:46;25.70;82.10
47482;DHT22;33219;47.410;9.730;2023-05-27T11:34:14;25.50;82.80
47482;DHT22;33219;47.410;9.730;2023-05-27T11:36:44;25.60;79.80
47482;DHT22;33219;47.410;9.730;2023-05-27T11:39:12;25.70;80.60
47482;DHT22;33219;47.410;9.730;2023-05-27T11:41:51;25.50;79.90
47482;DHT22;33219;47.410;9.730;2023-05-27T11:44:22;25.10;80.20
47482;DHT22;33219;47.410;9.730;2023-05-27T11:46:52;25.10;82.10
47482;DHT22;33219;47.410;9.730;2023-05-27T11:49:20;24.90;83.10
47482;DHT22;33219;47.410;9.730;2023-05-27T11:51:49;25.10;84.20
47482;DHT22;33219;47.410;9.730;2023-05-27T11:54:28;25.20;83.90
47482;DHT22;33219;47.410;9.730;2023-05-27T11:56:56;25.50;83.60
47482;DHT22;33219;47.410;9.730;2023-05-27T11:59:26;25.40;82.20
47482;DHT22;33219;47.410;9.730;2023-05-27T12:01:53;25.60;79.90
47482;DHT22;33219;47.410;9.730;2023-05-27T12:04:21;25.60;80.50
47482;DHT22;33219;47.410;9.730;2023-05-27T12:06:48;25.80;81.30
47482;DHT22;33219;47.410;9.730;2023-05-27T12:09:17;25.90;81.80
47482;DHT22;33219;47.410;9.730;2023-05-27T12:11:45;26.00;81.50
47482;DHT22;33219;47.410;9.730;2023-05-27T12:14:13;26.10;81.70
47482;DHT22;33219;47.410;9.730;2023-05-27T12:16:40;26.30;82.00
47482;DHT22;33219;47.410;9.730;2023-05-27T12:19:08;26.40;80.10
47482;DHT22;33219;47.410;9.730;2023-05-27T12:21:38;26.40;79.90
47482;DHT22;33219;47.410;9.730;2023-05-27T12:24:06;26.60;81.00
47482;DHT22;33219;47.410;9.730;2023-05-27T12:26:34;26.70;79.70
47482;DHT22;33219;47.410;9.730;2023-05-27T12:29:03;26.60;78.20
47482;DHT22;33219;47.410;9.730;2023-05-27T12:31:31;26.70;78.50
47482;DHT22;33219;47.410;9.730;2023-05-27T12:33:58;26.70;80.10
47482;DHT22;33219;47.410;9.730;2023-05-27T12:36:26;26.80;82.30
47482;DHT22;33219;47.410;9.730;2023-05-27T12:38:53;26.90;80.60
47482;DHT22;33219;47.410;9.730;2023-05-27T12:41:21;26.90;75.30
47482;DHT22;33219;47.410;9.730;2023-05-27T12:43:49;26.90;76.70
47482;DHT22;33219;47.410;9.730;2023-05-27T12:46:16;26.80;75.30
47482;DHT22;33219;47.410;9.730;2023-05-27T12:48:44;26.90;76.20
47482;DHT22;33219;47.410;9.730;2023-05-27T12:51:11;26.80;77.10
47482;DHT22;33219;47.410;9.730;2023-05-27T12:53:39;26.80;77.30
47482;DHT22;33219;47.410;9.730;2023-05-27T12:56:06;27.00;76.20
47482;DHT22;33219;47.410;9.730;2023-05-27T12:58:34;26.90;79.40
47482;DHT22;33219;47.410;9.730;2023-05-27T13:01:01;26.80;78.60
47482;DHT22;33219;47.410;9.730;2023-05-27T13:03:29;26.90;76.60
47482;DHT22;33219;47.410;9.730;2023-05-27T13:05:57;27.00;80.40
47482;DHT22;33219;47.410;9.730;2023-05-27T13:08:25;27.30;79.20
47482;DHT22;33219;47.410;9.730;2023-05-27T13:10:52;27.40;77.60
47482;DHT22;33219;47.410;9.730;2023-05-27T13:13:20;27.50;75.90
47482;DHT22;33219;47.410;9.730;2023-05-27T13:15:48;27.50;77.50
47482;DHT22;33219;47.410;9.730;2023-05-27T13:18:16;27.50;77.10
47482;DHT22;33219;47.410;9.730;2023-05-27T13:20:43;27.60;75.70
47482;DHT22;33219;47.410;9.730;2023-05-27T13:23:11;27.80;74.90
47482;DHT22;33219;47.410;9.730;2023-05-27T13:25:38;27.90;73.40
47482;DHT22;33219;47.410;9.730;2023-05-27T13:28:06;27.90;70.90
47482;DHT22;33219;47.410;9.730;2023-05-27T13:30:33;27.80;69.30
47482;DHT22;33219;47.410;9.730;2023-05-27T13:33:01;27.60;69.60
47482;DHT22;33219;47.410;9.730;2023-05-27T13:35:29;27.00;66.80
47482;DHT22;33219;47.410;9.730;2023-05-27T13:37:56;26.90;69.30
47482;DHT22;33219;47.410;9.730;2023-05-27T13:40:25;26.90;71.00
47482;DHT22;33219;47.410;9.730;2023-05-27T13:42:53;26.90;72.70
47482;DHT22;33219;47.410;9.730;2023-05-27T13:45:20;27.10;70.20
47482;DHT22;33219;47.410;9.730;2023-05-27T13:47:48;27.00;69.10
47482;DHT22;33219;47.410;9.730;2023-05-27T13:50:18;27.10;70.10
47482;DHT22;33219;47.410;9.730;2023-05-27T13:52:46;27.20;71.60
47482;DHT22;33219;47.410;9.730;2023-05-27T13:55:13;27.10;69.90
47482;DHT22;33219;47.410;9.730;2023-05-27T13:57:41;27.10;71.50
47482;DHT22;33219;47.410;9.730;2023-05-27T14:00:10;27.20;69.50
47482;DHT22;33219;47.410;9.730;2023-05-27T14:02:38;26.90;67.60
47482;DHT22;33219;47.410;9.730;2023-05-27T14:05:06;26.80;69.40
47482;DHT22;33219;47.410;9.730;2023-05-27T14:07:41;27.00;71.70
47482;DHT22;33219;47.410;9.730;2023-05-27T14:10:09;26.90;69.30
47482;DHT22;33219;47.410;9.730;2023-05-27T14:12:37;26.80;69.10
47482;DHT22;33219;47.410;9.730;2023-05-27T14:15:07;26.80;70.20
47482;DHT22;33219;47.410;9.730;2023-05-27T14:17:34;26.80;70.20
47482;DHT22;33219;47.410;9.730;2023-05-27T14:20:03;26.90;70.00
47482;DHT22;33219;47.410;9.730;2023-05-27T14:22:32;27.10;69.60
47482;DHT22;33219;47.410;9.730;2023-05-27T14:25:00;27.10;70.10
47482;DHT22;33219;47.410;9.730;2023-05-27T14:27:27;27.30;70.90
47482;DHT22;33219;47.410;9.730;2023-05-27T14:29:55;27.30;71.60
47482;DHT22;33219;47.410;9.730;2023-05-27T14:32:22;27.10;68.50
47482;DHT22;33219;47.410;9.730;2023-05-27T14:34:50;27.10;68.50
47482;DHT22;33219;47.410;9.730;2023-05-27T14:37:18;27.20;68.00
47482;DHT22;33219;47.410;9.730;2023-05-27T14:39:45;27.20;68.80
47482;DHT22;33219;47.410;9.730;2023-05-27T14:42:13;27.00;68.30
47482;DHT22;33219;47.410;9.730;2023-05-27T14:44:40;26.90;69.70
47482;DHT22;33219;47.410;9.730;2023-05-27T14:47:08;26.60;68.30
47482;DHT22;33219;47.410;9.730;2023-05-27T14:49:37;26.50;70.60
47482;DHT22;33219;47.410;9.730;2023-05-27T14:52:05;26.60;69.80
47482;DHT22;33219;47.410;9.730;2023-05-27T14:54:32;26.60;69.90
47482;DHT22;33219;47.410;9.730;2023-05-27T14:57:00;26.50;70.90
47482;DHT22;33219;47.410;9.730;2023-05-27T14:59:27;26.50;69.00
47482;DHT22;33219;47.410;9.730;2023-05-27T15:01:55;26.50;70.20
47482;DHT22;33219;47.410;9.730;2023-05-27T15:04:23;26.40;72.90
47482;DHT22;33219;47.410;9.730;2023-05-27T15:06:50;26.30;70.50
47482;DHT22;33219;47.410;9.730;2023-05-27T15:09:18;26.40;70.00
47482;DHT22;33219;47.410;9.730;2023-05-27T15:11:45;26.40;70.20
47482;DHT22;33219;47.410;9.730;2023-05-27T15:14:13;26.50;71.70
47482;DHT22;33219;47.410;9.730;2023-05-27T15:16:41;26.50;71.90
47482;DHT22;33219;47.410;9.730;2023-05-27T15:19:08;26.50;71.50
47482;DHT22;33219;47.410;9.730;2023-05-27T15:21:36;26.70;71.10
47482;DHT22;33219;47.410;9.730;2023-05-27T15:24:03;26.70;70.80
47482;DHT22;33219;47.410;9.730;2023-05-27T15:26:31;26.60;68.70
47482;DHT22;33219;47.410;9.730;2023-05-27T15:28:58;26.50;69.50
47482;DHT22;33219;47.410;9.730;2023-05-27T15:31:26;26.40;70.80
47482;DHT22;33219;47.410;9.730;2023-05-27T15:33:53;26.30;71.20
47482;DHT22;33219;47.410;9.730;2023-05-27T15:36:21;26.00;68.90
47482;DHT22;33219;47.410;9.730;2023-05-27T15:38:49;25.70;69.40